Portada
METAR-TAF:

METAR-TAF

Aeroports :

Ulurú, Austràlia

latitud: 25-11-10S, longitud: 130-58-32E, altitud: 496 m

Observació

L'informe es va fer fa 30 minuts, a les 08:00 UTC
Vent 9 kt del Nord/Nord-Est
Temperatura 29°C
Humitat 25%
Pressió 1015 hPa
Visibilitat 10 km o més

METAR: YAYE 170800Z AUTO 03009KT 9999 // NCD 29/07 Q1015

Hora: 18:00 (08:30 UTC)


TAF: manca

Observacions i pronòstics meteorològics de més de 4000 aeroports (METAR i TAF).

Les estacions disponibles són els punts grocs i vermells al mapa.

Posi el ratolí al punt desitjat per veure el nom de l'estació.

Feu clic per veure les observacions i els pronòstics meteorològics.

Per canviar el mapa: feu clic els botons verds amb una creu de color negre per apropar; al botó verd amb un guió per allunyar la imatge; o en les fletxes verdes per a mapes adjacents.


METAR-TAF: